Terminal Aerodrome Forecast
Issued by NWS

Home | Current Version | Previous Version | Text Only | Print | Product List | Glossary On
Versions: 1 2 3 4 5 6 7 8 9 10 11 12 13 14 15 16 17 18 19 20 21 22 23 24 25 26 27 28 29 30 31 32 33
262
FTUS41 KCAR 251736
TAFBHB
TAF
KBHB 251736Z 2518/2618 20010KT 6SM BR SCT020
     FM251900 20010KT 6SM BR SCT100
     FM252200 20006KT 3SM BR BKN008
     FM260100 21005KT 1SM BR BKN004
     FM260600 28004KT 6SM BR SCT250
     FM261000 32008KT P6SM FEW250=

USA.gov is the U.S. government's official web portal to all federal, state and local government web resources and services.